• Join FlightAware (Why Join?)
  • Login
  • US Flag 
12:13AM EDT


 

Airport Tracker/Info


-or-


 

Live Flight TrackerFlight Track Log ✈ EJA929 ✈ 19-Nov-2013 ✈ KLNK - KCMH

Flight Track Log - Related Links

Times and Time Zones

All times are in EST time to prevent confusion due to time zone crossing. See the EJA929 flight status page for this flight to view local times or setup timezone preferences in your user account.

Time Position Orientation Groundspeed Altitude Reporting Facility
EST Latitude Longitude Course Direction KTS MPH feet Rate Location/Type
04:41PM 40.8256 -96.7444 128° Southeast 164 189 2,100  Level Minneapolis Center
04:42PM 40.7975 -96.6978 128° Southeast 245 282 5,300 3,960 Climbing Minneapolis Center
04:42PM 40.8108 -96.6714 56° Northeast 294 338 6,800 4,980 Climbing Minneapolis Center
04:43PM 40.8233 -96.6017 77° East 303 349 10,400 4,620 Climbing Minneapolis Center
04:43PM 40.8481 -96.5756 39° Northeast 298 343 11,600 2,880 Climbing Minneapolis Center
04:44PM 40.9036 -96.4678 56° Northeast 340 391 14,600 2,160 Climbing Minneapolis Center
04:45PM 40.9692 -96.3364 57° Northeast 416 479 16,100 1,440 Climbing Minneapolis Center
04:46PM 41.0006 -96.1803 75° East 439 505 17,600 1,560 Climbing Minneapolis Center
04:47PM 41.0267 -95.9867 80° East 445 512 19,400 1,560 Climbing Minneapolis Center
04:48PM 41.0483 -95.8214 80° East 454 522 20,900 1,440 Climbing Minneapolis Center
04:50PM 41.0692 -95.6519 81° East 465 535 22,400 1,440 Climbing Minneapolis Center
04:51PM 41.0753 -95.4742 87° East 480 552 23,900 1,440 Climbing Minneapolis Center
04:52PM 41.0811 -95.2917 88° East 492 566 25,400 1,560 Climbing Minneapolis Center
04:53PM 41.0878 -95.0689 88° East 503 579 27,200 1,560 Climbing Minneapolis Center
04:54PM 41.0800 -94.8800 93° East 511 588 28,700 1,440 Climbing Minneapolis Center
04:55PM 41.0606 -94.6883 98° East 520 598 30,200 1,500 Climbing Minneapolis Center
04:56PM 41.0508 -94.4833 94° East 528 608 31,800 1,500 Climbing Minneapolis Center
04:57PM 41.0589 -94.2828 87° East 541 623 33,300 1,440 Climbing Minneapolis Center
04:58PM 41.0644 -94.0803 88° East 550 633 34,800 1,440 Climbing Minneapolis Center
04:59PM 41.0708 -93.8803 88° East 549 632 36,300 1,560 Climbing Minneapolis Center
05:00PM 41.0783 -93.6408 88° East 544 626 38,100 1,560 Climbing Minneapolis Center
05:01PM 41.0836 -93.4439 88° East 541 623 39,600 1,380 Climbing Minneapolis Center
05:02PM 41.0875 -93.2464 88° East 539 620 41,000 660 Climbing Minneapolis Center
05:03PM 41.0919 -93.0844 88° East 537 618 40,900 -60 Descending Chicago Center
05:04PM 41.0950 -92.8806 89° East 547 629 40,900  Level Chicago Center
05:05PM 41.0994 -92.6353 89° East 554 638 40,900  Level Chicago Center
05:06PM 41.1019 -92.4331 89° East 551 634 40,900  Level Chicago Center
05:07PM 41.1056 -92.2283 89° East 554 638 40,900  Level Chicago Center
05:08PM 41.1081 -92.0233 89° East 556 640 40,900  Level Chicago Center
05:09PM 41.1108 -91.8169 89° East 558 642 40,900  Level Chicago Center
05:10PM 41.1117 -91.6050 90° East 566 651 40,900  Level Chicago Center
05:11PM 41.1122 -91.3972 90° East 565 650 40,900  Level Chicago Center
05:12PM 41.1131 -91.1475 90° East 564 649 40,900  Level Chicago Center
05:13PM 41.1139 -90.9386 90° East 565 650 41,000  Climbing Chicago Center
05:14PM 41.1147 -90.7314 90° East 560 644 40,900 -60 Descending Chicago Center
05:15PM 41.1150 -90.5256 90° East 557 641 40,900  Level Chicago Center
05:16PM 41.1133 -90.3189 91° East 557 641 40,900  Level Chicago Center
05:17PM 41.1128 -90.1122 90° East 557 641 40,900  Level Chicago Center
05:18PM 41.1125 -89.9022 90° East 562 647 40,900  Level Chicago Center
05:19PM 41.1094 -89.6517 91° East 562 647 41,000  Climbing Chicago Center
05:20PM 41.1072 -89.4453 91° East 559 643 40,900  Descending Chicago Center
05:21PM 41.1047 -89.2369 91° East 561 646 41,000  Climbing Chicago Center
05:22PM 41.1008 -89.0403 91° East 560 644 41,000 -60 Level Chicago Center
05:23PM 41.0975 -88.7944 91° East 561 646 40,900  Descending Chicago Center
05:25PM 41.1031 -88.5897 88° East 562 647 41,000  Climbing Chicago Center
05:26PM 41.1200 -88.3872 84° East 560 644 40,900 -60 Descending Chicago Center
05:27PM 41.1383 -88.1856 83° East 559 643 40,900  Level Chicago Center
05:28PM 41.1561 -87.9844 83° East 561 646 41,000 -540 Climbing Chicago Center
05:29PM 41.1642 -87.7442 87° East 552 635 39,800 -1,260 Descending Chicago Center
05:30PM 41.1581 -87.5497 92° East 537 618 38,500 -1,260 Descending Chicago Center
05:31PM 41.1497 -87.3547 93° East 536 617 37,200 -1,260 Descending Chicago Center
05:32PM 41.1336 -87.1569 96° East 543 625 35,900 -1,140 Descending Chicago Center
05:33PM 41.1125 -86.9153 97° East 555 639 34,900 -720 Descending Chicago Center
05:34PM 41.0919 -86.7297 98° East 563 648 34,500 -720 Descending Chicago Center
05:35PM 41.0703 -86.5281 98° East 559 643 33,500 -1,080 Descending Chicago Center
05:36PM 41.0414 -86.2842 99° East 561 646 32,300 -1,080 Descending Chicago Center
05:37PM 41.0164 -86.0814 99° East 563 648 31,300 -1,020 Descending Chicago Center
05:38PM 40.9917 -85.8783 99° East 563 648 30,300 -1,020 Descending Chicago Center
05:39PM 40.9675 -85.6733 99° East 568 654 29,300 -1,020 Descending Chicago Center
05:40PM 40.9406 -85.4706 100° East 567 652 28,300 -1,080 Descending Chicago Center
05:41PM 40.9114 -85.2272 99° East 562 647 27,100 -1,140 Descending Chicago Center
05:42PM 40.8869 -85.0328 99° East 552 635 26,000 -1,380 Descending Chicago Center
05:43PM 40.8633 -84.8483 100° East 527 606 24,300 -1,500 Descending Chicago Center
05:44PM 40.8219 -84.6744 107° East 508 585 23,000 -1,080 Descending Chicago Center
05:45PM 40.7761 -84.5236 112° Southeast 498 573 22,300 -960 Descending Indianapolis Center
05:46PM 40.7225 -84.3550 113° Southeast 498 573 21,200 -1,080 Descending Indianapolis Center
05:47PM 40.6708 -84.1914 113° Southeast 487 560 20,100 -1,680 Descending Indianapolis Center
05:48PM 40.6097 -83.9975 112° Southeast 480 552 17,800 -2,280 Descending Indianapolis Center
05:49PM 40.5600 -83.8414 113° Southeast 466 536 15,500 -2,280 Descending Indianapolis Center
05:51PM 40.4981 -83.6450 112° Southeast 415 478 12,400 -2,160 Descending Indianapolis Center
05:51PM 40.4692 -83.5575 113° Southeast 417 480 11,100 -1,080 Descending Indianapolis Center
05:52PM 40.4381 -83.4642 114° Southeast 414 476 11,000 -120 Descending Indianapolis Center
05:52PM 40.4239 -83.4175 112° Southeast 415 478 11,000  Level Indianapolis Center
05:53PM 40.3764 -83.3439 130° Southeast 407 468 11,000 -420 Level Indianapolis Center
05:53PM 40.3450 -83.3236 154° Southeast 393 452 10,600 -1,320 Descending Indianapolis Center
05:54PM 40.2814 -83.2839 155° Southeast 339 390 9,700 -1,200 Descending Indianapolis Center
05:54PM 40.2606 -83.2719 156° South 342 394 9,400 -1,500 Descending Indianapolis Center
05:55PM 40.2219 -83.2467 153° Southeast 302 348 8,500 -2,160 Descending Indianapolis Center
05:55PM 40.1703 -83.2183 157° South 306 352 7,200 -1,860 Descending Indianapolis Center
05:56PM 40.1519 -83.2106 162° South 293 337 6,800 -1,260 Descending Indianapolis Center
05:56PM 40.0972 -83.1789 156° South 293 337 5,900 -1,320 Descending Indianapolis Center
05:57PM 40.0619 -83.1628 161° South 250 288 5,100 -1,800 Descending Indianapolis Center
05:58PM 40.0158 -83.0978 133° Southeast 239 275 3,200 -1,380 Descending Indianapolis Center
05:59PM 40.0136 -83.0644 95° East 248 285 3,000 -540 Descending Indianapolis Center
05:59PM 40.0106 -83.0425 100° East 188 216 2,800 -900 Descending Indianapolis Center
06:00PM 40.0081 -82.9997 94° East 211 243 2,100 -840 Descending Indianapolis Center
06:00PM 40.0058 -82.9817 99° East 150 173 2,000 -540 Descending Indianapolis Center
06:01PM 40.0058 -82.9489 90° East 171 197 1,600 -720 Descending Indianapolis Center
06:01PM 40.0047 -82.9267 94° East 129 148 1,200 -1,200 Descending Indianapolis Center
06:03PM 39.9969 -82.8922 126° Southeast  Level Estimated
06:10PM 39.9969 -82.8922 126° Southeast  Level Estimated